Time;durP1;ratioP1;P1;durP2;ratioP2;P2;SDS_P1;SDS_P2;PMS_P1;PMS_P2;Temp;Humidity;BMP_temperature;BMP_pressure;BME280_temperature;BME280_humidity;BME280_pressure;Samples;Min_cycle;Max_cycle;Signal;HPM_P1;HPM_P2
2023/04/13 00:00:43;;;;;;;2.10;1.60;;;;;;;;;;5072845;28;20087;-66
2023/04/13 00:03:11;;;;;;;3.83;1.85;;;;;;;;;;5072479;28;20484;-65
2023/04/13 00:05:39;;;;;;;1.92;1.55;;;;;;;;;;5072494;28;20035;-66
2023/04/13 00:08:05;;;;;;;1.70;1.60;;;;;;;;;;5072640;28;20109;-66
2023/04/13 00:10:34;;;;;;;2.72;1.70;;;;;;;;;;5072518;28;20025;-65
2023/04/13 00:13:01;;;;;;;3.08;1.77;;;;;;;;;;5072528;28;20044;-66
2023/04/13 00:15:26;;;;;;;2.30;1.70;;;;;;;;;;5072307;28;20029;-66
2023/04/13 00:17:52;;;;;;;1.80;1.70;;;;;;;;;;5072457;28;20066;-65
2023/04/13 00:20:18;;;;;;;3.00;1.67;;;;;;;;;;5072328;28;20074;-65
2023/04/13 00:22:46;;;;;;;1.80;1.60;;;;;;;;;;5072269;28;20029;-65
2023/04/13 00:25:13;;;;;;;1.65;1.55;;;;;;;;;;5072580;28;20385;-65
2023/04/13 00:27:39;;;;;;;1.90;1.50;;;;;;;;;;5072320;28;20031;-65
2023/04/13 00:30:10;;;;;;;2.22;1.63;;;;;;;;;;5072264;28;20112;-65
2023/04/13 00:32:37;;;;;;;2.00;1.70;;;;;;;;;;5072141;28;20120;-65
2023/04/13 00:35:03;;;;;;;3.45;1.67;;;;;;;;;;5072490;28;20025;-65
2023/04/13 00:37:29;;;;;;;2.08;1.70;;;;;;;;;;5072500;28;20553;-65
2023/04/13 00:39:55;;;;;;;2.30;1.80;;;;;;;;;;5072358;28;20440;-65
2023/04/13 00:42:21;;;;;;;2.00;1.60;;;;;;;;;;5072320;28;20107;-65
2023/04/13 00:44:46;;;;;;;2.63;1.73;;;;;;;;;;5075752;28;20376;-65
2023/04/13 00:47:29;;;;;;;2.67;1.60;;;;;;;;;;5076137;28;20025;-65
2023/04/13 00:49:55;;;;;;;2.05;1.70;;;;;;;;;;5076127;28;20024;-65
2023/04/13 00:52:21;;;;;;;3.28;1.80;;;;;;;;;;5075998;28;20446;-65
2023/04/13 00:54:48;;;;;;;2.22;1.80;;;;;;;;;;5075871;28;20468;-65
2023/04/13 00:57:18;;;;;;;1.85;1.60;;;;;;;;;;5075939;28;20027;-65
2023/04/13 00:59:48;;;;;;;1.95;1.75;;;;;;;;;;5075865;28;20029;-66
2023/04/13 01:02:15;;;;;;;2.60;1.73;;;;;;;;;;5076093;28;20031;-65
2023/04/13 01:04:41;;;;;;;1.95;1.70;;;;;;;;;;5075724;28;20025;-65
2023/04/13 01:07:40;;;;;;;2.20;1.90;;;;;;;;;;5076012;28;20409;-65
2023/04/13 01:10:08;;;;;;;2.45;1.80;;;;;;;;;;5075717;28;20097;-65
2023/04/13 01:12:58;;;;;;;2.85;1.83;;;;;;;;;;5075692;28;20027;-65
2023/04/13 01:15:26;;;;;;;;;;;;;;;;;;5068633;28;20408;-66
2023/04/13 01:17:57;;;;;;;2.25;1.50;;;;;;;;;;5075796;28;20012;-65
2023/04/13 01:20:25;;;;;;;3.97;1.90;;;;;;;;;;5075856;28;20079;-65
2023/04/13 01:22:59;;;;;;;3.10;1.60;;;;;;;;;;5075426;28;20032;-65
2023/04/13 01:25:38;;;;;;;1.83;1.50;;;;;;;;;;5075443;28;20104;-65
2023/04/13 01:28:07;;;;;;;2.58;1.70;;;;;;;;;;5075321;28;20107;-65
2023/04/13 01:30:36;;;;;;;2.28;1.58;;;;;;;;;;5075649;28;20020;-65
2023/04/13 01:33:03;;;;;;;1.97;1.43;;;;;;;;;;5075050;28;20076;-65
2023/04/13 01:35:29;;;;;;;1.70;1.60;;;;;;;;;;5075280;28;20265;-65
2023/04/13 01:37:58;;;;;;;2.58;1.90;;;;;;;;;;5075136;28;20020;-65
2023/04/13 01:40:27;;;;;;;1.80;1.70;;;;;;;;;;5075151;28;20055;-66
2023/04/13 01:42:52;;;;;;;2.33;1.60;;;;;;;;;;5075011;28;20214;-65
2023/04/13 01:45:25;;;;;;;1.60;1.50;;;;;;;;;;5075170;28;20111;-66
2023/04/13 01:48:14;;;;;;;2.83;2.00;;;;;;;;;;5074951;28;20435;-65
2023/04/13 01:50:42;;;;;;;3.23;2.00;;;;;;;;;;5075065;28;20058;-65
2023/04/13 01:53:16;;;;;;;2.13;1.67;;;;;;;;;;5074902;28;20078;-65
2023/04/13 01:55:43;;;;;;;2.55;1.50;;;;;;;;;;5074840;28;20025;-67
2023/04/13 01:58:11;;;;;;;2.97;1.90;;;;;;;;;;5075327;28;20021;-65
2023/04/13 02:00:38;;;;;;;1.77;1.67;;;;;;;;;;5074803;28;20017;-65
2023/04/13 02:03:08;;;;;;;3.95;2.03;;;;;;;;;;5074878;28;20033;-65
2023/04/13 02:05:41;;;;;;;2.22;1.73;;;;;;;;;;5075023;28;20407;-65
2023/04/13 02:08:07;;;;;;;1.98;1.80;;;;;;;;;;5074557;28;20457;-65
2023/04/13 02:10:35;;;;;;;3.17;1.85;;;;;;;;;;5074598;28;20526;-65
2023/04/13 02:13:02;;;;;;;2.40;1.80;;;;;;;;;;5074440;28;20020;-65
2023/04/13 02:15:28;;;;;;;2.40;1.83;;;;;;;;;;5074503;28;20070;-65
2023/04/13 02:17:54;;;;;;;2.45;1.80;;;;;;;;;;5074326;28;20025;-65
2023/04/13 02:20:19;;;;;;;2.22;1.80;;;;;;;;;;5074347;28;20025;-66
2023/04/13 02:22:45;;;;;;;1.98;1.85;;;;;;;;;;5074498;28;20111;-65
2023/04/13 02:25:12;;;;;;;3.30;1.90;;;;;;;;;;5074607;28;20479;-65
2023/04/13 02:27:38;;;;;;;2.00;1.80;;;;;;;;;;5074219;28;20461;-65
2023/04/13 02:30:05;;;;;;;2.70;1.80;;;;;;;;;;5074270;28;20082;-65
2023/04/13 02:32:31;;;;;;;2.47;1.70;;;;;;;;;;5073977;28;20080;-65
2023/04/13 02:35:00;;;;;;;2.00;1.75;;;;;;;;;;5074116;28;20025;-65
2023/04/13 02:37:30;;;;;;;2.10;1.85;;;;;;;;;;5074016;28;20074;-65
2023/04/13 02:39:55;;;;;;;2.40;2.00;;;;;;;;;;5073998;28;20052;-65
2023/04/13 02:42:22;;;;;;;1.92;1.73;;;;;;;;;;5073848;28;20063;-65
2023/04/13 02:44:48;;;;;;;2.67;1.70;;;;;;;;;;5074267;28;20032;-65
2023/04/13 02:47:15;;;;;;;2.33;1.83;;;;;;;;;;5073815;28;20029;-65
2023/04/13 02:49:41;;;;;;;2.55;1.90;;;;;;;;;;5073731;28;20514;-66
2023/04/13 02:52:07;;;;;;;2.58;1.92;;;;;;;;;;5073763;28;20476;-65
2023/04/13 02:54:33;;;;;;;3.17;1.92;;;;;;;;;;5073675;28;20046;-65
2023/04/13 02:57:00;;;;;;;1.95;1.80;;;;;;;;;;5073665;28;20027;-65
2023/04/13 02:59:27;;;;;;;2.03;1.70;;;;;;;;;;5073595;28;20115;-65
2023/04/13 03:01:57;;;;;;;1.80;1.70;;;;;;;;;;5073614;28;20107;-65
2023/04/13 03:04:23;;;;;;;;;;;;;;;;;;5073941;28;20032;-65
2023/04/13 03:06:48;;;;;;;2.00;1.80;;;;;;;;;;5072941;28;19942;-65
2023/04/13 03:09:15;;;;;;;1.98;1.77;;;;;;;;;;5073672;28;20487;-65
2023/04/13 03:11:40;;;;;;;2.45;1.83;;;;;;;;;;5073354;28;20040;-65
2023/04/13 03:14:06;;;;;;;1.90;1.80;;;;;;;;;;5073257;28;20044;-65
2023/04/13 03:16:33;;;;;;;1.85;1.70;;;;;;;;;;5073576;28;20043;-65
2023/04/13 03:18:58;;;;;;;3.78;1.83;;;;;;;;;;5073137;28;20571;-65
2023/04/13 03:21:24;;;;;;;2.60;1.80;;;;;;;;;;5073175;28;20040;-64
2023/04/13 03:23:49;;;;;;;2.22;1.75;;;;;;;;;;5073124;28;20024;-64
2023/04/13 03:26:15;;;;;;;2.72;1.60;;;;;;;;;;5073320;28;20392;-65
2023/04/13 03:28:40;;;;;;;2.08;1.80;;;;;;;;;;5073239;28;20395;-65
2023/04/13 03:31:06;;;;;;;2.03;1.77;;;;;;;;;;5073141;28;20036;-65
2023/04/13 03:33:31;;;;;;;2.97;2.10;;;;;;;;;;5072989;28;20028;-65
2023/04/13 03:35:57;;;;;;;1.98;1.77;;;;;;;;;;5072892;28;20040;-65
2023/04/13 03:38:22;;;;;;;2.10;1.90;;;;;;;;;;5072874;28;20024;-65
2023/04/13 03:40:48;;;;;;;2.60;2.00;;;;;;;;;;5073105;28;20078;-64
2023/04/13 03:43:13;;;;;;;2.15;1.90;;;;;;;;;;5072971;28;20418;-65
2023/04/13 03:45:39;;;;;;;2.55;2.00;;;;;;;;;;5072786;28;20055;-65
2023/04/13 03:48:05;;;;;;;2.67;1.70;;;;;;;;;;5072689;28;20039;-65
2023/04/13 03:50:31;;;;;;;2.65;1.80;;;;;;;;;;5088472;28;20031;-65
2023/04/13 03:52:56;;;;;;;2.17;1.70;;;;;;;;;;5072648;28;20021;-65
2023/04/13 03:55:22;;;;;;;2.70;2.00;;;;;;;;;;5072936;28;20472;-65
2023/04/13 03:57:48;;;;;;;2.08;1.80;;;;;;;;;;5072607;28;20426;-64
2023/04/13 04:00:14;;;;;;;2.33;1.77;;;;;;;;;;5072625;28;20078;-65
2023/04/13 04:02:41;;;;;;;4.38;1.90;;;;;;;;;;5072725;28;20040;-65
2023/04/13 04:05:08;;;;;;;2.03;1.80;;;;;;;;;;5072829;28;20024;-65
2023/04/13 04:07:33;;;;;;;2.00;1.80;;;;;;;;;;5072721;28;20025;-65
2023/04/13 04:09:59;;;;;;;2.03;1.75;;;;;;;;;;5072471;28;20025;-66
2023/04/13 04:12:24;;;;;;;2.00;1.80;;;;;;;;;;5072357;28;20036;-65
2023/04/13 04:14:50;;;;;;;2.50;1.98;;;;;;;;;;5072462;28;20167;-65
2023/04/13 04:17:15;;;;;;;2.83;2.20;;;;;;;;;;5072235;28;20028;-65
2023/04/13 04:19:41;;;;;;;2.13;1.90;;;;;;;;;;5072426;28;20070;-65
2023/04/13 04:22:08;;;;;;;2.47;1.92;;;;;;;;;;5071950;28;20056;-66
2023/04/13 04:24:34;;;;;;;1.80;1.63;;;;;;;;;;5072609;28;20024;-66
2023/04/13 04:27:00;;;;;;;3.58;2.03;;;;;;;;;;5072517;28;20433;-66
2023/04/13 04:29:33;;;;;;;2.67;1.95;;;;;;;;;;5072284;28;20059;-66
2023/04/13 04:32:03;;;;;;;2.13;1.77;;;;;;;;;;5072195;28;20060;-66
2023/04/13 04:34:29;;;;;;;2.22;1.85;;;;;;;;;;5072555;28;20349;-66
2023/04/13 04:36:55;;;;;;;2.03;1.77;;;;;;;;;;5072123;28;20036;-66
2023/04/13 04:39:21;;;;;;;1.95;1.60;;;;;;;;;;5072116;28;20036;-64
2023/04/13 04:41:53;;;;;;;2.00;1.77;;;;;;;;;;5072009;28;20119;-65
2023/04/13 04:44:29;;;;;;;2.17;1.98;;;;;;;;;;5072103;28;20020;-64
2023/04/13 04:46:55;;;;;;;2.67;1.98;;;;;;;;;;5072043;28;20028;-64
2023/04/13 04:49:21;;;;;;;2.15;1.88;;;;;;;;;;5072022;28;20024;-63
2023/04/13 04:51:48;;;;;;;2.72;2.00;;;;;;;;;;5072261;28;20024;-65
2023/04/13 04:54:18;;;;;;;2.08;1.88;;;;;;;;;;5071902;28;20032;-65
2023/04/13 04:56:44;;;;;;;;;;;;;;;;;;5072566;28;20112;-65
2023/04/13 04:59:10;;;;;;;2.20;2.00;;;;;;;;;;5087764;28;19990;-65
2023/04/13 05:01:37;;;;;;;2.92;2.00;;;;;;;;;;5071642;28;20032;-66
2023/04/13 05:04:03;;;;;;;2.70;1.90;;;;;;;;;;5071808;28;20025;-64
2023/04/13 05:06:32;;;;;;;2.08;1.88;;;;;;;;;;5072033;28;20043;-64
2023/04/13 05:09:03;;;;;;;2.45;1.92;;;;;;;;;;5071791;28;20027;-64
2023/04/13 05:11:29;;;;;;;2.45;1.80;;;;;;;;;;5071713;28;20036;-64
2023/04/13 05:13:55;;;;;;;8.40;2.30;;;;;;;;;;5072114;28;20114;-65
2023/04/13 05:16:22;;;;;;;2.67;2.00;;;;;;;;;;5071938;28;20024;-64
2023/04/13 05:18:48;;;;;;;2.40;1.90;;;;;;;;;;5071726;28;20016;-66
2023/04/13 05:21:14;;;;;;;2.25;1.95;;;;;;;;;;5071741;28;20357;-65
2023/04/13 05:23:41;;;;;;;3.50;2.10;;;;;;;;;;5071486;28;20025;-65
2023/04/13 05:26:09;;;;;;;2.22;1.95;;;;;;;;;;5071622;28;20666;-65
2023/04/13 05:28:34;;;;;;;3.83;1.88;;;;;;;;;;5071767;28;20383;-63
2023/04/13 05:31:01;;;;;;;2.75;1.70;;;;;;;;;;5075245;28;20028;-64
2023/04/13 05:33:27;;;;;;;2.03;1.83;;;;;;;;;;5075104;28;20048;-65
2023/04/13 05:35:52;;;;;;;3.08;1.75;;;;;;;;;;5075421;28;20055;-63
2023/04/13 05:38:18;;;;;;;2.53;2.08;;;;;;;;;;5084747;28;20493;-64
2023/04/13 05:40:44;;;;;;;2.60;1.83;;;;;;;;;;5073843;28;20056;-64
2023/04/13 05:43:11;;;;;;;2.60;2.08;;;;;;;;;;5074726;28;20484;-64
2023/04/13 05:45:37;;;;;;;3.05;2.35;;;;;;;;;;5075043;28;20024;-64
2023/04/13 05:48:03;;;;;;;2.50;1.90;;;;;;;;;;5074929;28;20029;-63
2023/04/13 05:50:29;;;;;;;2.28;1.90;;;;;;;;;;5075154;28;20060;-64
2023/04/13 05:52:56;;;;;;;2.05;1.85;;;;;;;;;;5083395;28;20067;-63
2023/04/13 05:55:22;;;;;;;2.13;1.92;;;;;;;;;;5094952;28;20073;-63
2023/04/13 05:57:49;;;;;;;3.00;2.30;;;;;;;;;;5095052;28;20375;-64
2023/04/13 06:00:17;;;;;;;2.30;2.10;;;;;;;;;;5095162;28;20020;-63
2023/04/13 06:02:44;;;;;;;2.90;2.20;;;;;;;;;;5094831;28;20035;-63
2023/04/13 06:05:13;;;;;;;1.92;1.77;;;;;;;;;;5094827;28;20028;-63
2023/04/13 06:07:39;;;;;;;2.65;2.08;;;;;;;;;;5088153;28;20091;-63
2023/04/13 06:10:05;;;;;;;3.15;2.10;;;;;;;;;;5074841;28;20017;-64
2023/04/13 06:12:31;;;;;;;3.00;1.90;;;;;;;;;;5074512;28;20098;-63
2023/04/13 06:14:56;;;;;;;2.70;2.00;;;;;;;;;;5074490;28;20426;-64
2023/04/13 06:17:22;;;;;;;2.50;2.28;;;;;;;;;;5074778;28;20118;-64
2023/04/13 06:19:48;;;;;;;3.47;1.90;;;;;;;;;;5086592;28;20023;-64
2023/04/13 06:22:13;;;;;;;4.00;2.05;;;;;;;;;;5094638;28;20032;-64
2023/04/13 06:24:39;;;;;;;2.20;1.95;;;;;;;;;;5094367;28;20078;-63
2023/04/13 06:27:04;;;;;;;2.88;2.15;;;;;;;;;;5094426;28;20123;-64
2023/04/13 06:29:31;;;;;;;2.60;2.10;;;;;;;;;;5094283;28;20039;-64
2023/04/13 06:31:56;;;;;;;2.20;2.00;;;;;;;;;;5094383;28;20131;-65
2023/04/13 06:34:22;;;;;;;2.47;2.03;;;;;;;;;;5094132;28;20460;-63
2023/04/13 06:36:47;;;;;;;3.00;2.03;;;;;;;;;;5094187;28;20028;-63
2023/04/13 06:39:14;;;;;;;2.20;2.00;;;;;;;;;;5076764;28;20016;-63
2023/04/13 06:41:40;;;;;;;3.22;2.38;;;;;;;;;;5083782;28;20044;-63
2023/04/13 06:44:05;;;;;;;3.25;2.10;;;;;;;;;;5094102;28;20107;-63
2023/04/13 06:46:31;;;;;;;2.80;2.10;;;;;;;;;;5094039;28;20020;-64
2023/04/13 06:48:57;;;;;;;2.28;1.95;;;;;;;;;;5093979;28;20111;-63
2023/04/13 06:51:22;;;;;;;2.28;2.08;;;;;;;;;;5094255;28;20095;-63
2023/04/13 06:53:50;;;;;;;3.70;2.33;;;;;;;;;;5076156;28;20020;-62
2023/04/13 06:56:15;;;;;;;3.83;2.30;;;;;;;;;;5093903;28;20023;-65
2023/04/13 06:58:41;;;;;;;3.10;1.95;;;;;;;;;;5093698;28;20480;-63
2023/04/13 07:01:07;;;;;;;2.42;2.00;;;;;;;;;;5093959;28;20119;-64
2023/04/13 07:03:32;;;;;;;2.15;1.70;;;;;;;;;;5075404;28;20109;-63
2023/04/13 07:05:58;;;;;;;2.35;2.00;;;;;;;;;;5093718;28;20020;-64
2023/04/13 07:08:23;;;;;;;2.85;2.13;;;;;;;;;;5093586;28;20024;-63
2023/04/13 07:10:53;;;;;;;2.60;2.08;;;;;;;;;;5093709;28;20032;-64
2023/04/13 07:13:19;;;;;;;2.10;1.83;;;;;;;;;;5093554;28;20027;-63
2023/04/13 07:15:45;;;;;;;2.28;2.05;;;;;;;;;;5093678;28;20031;-62
2023/04/13 07:18:11;;;;;;;2.75;1.92;;;;;;;;;;5093730;28;20028;-63
2023/04/13 07:20:38;;;;;;;2.45;2.13;;;;;;;;;;5093644;28;20093;-64
2023/04/13 07:23:05;;;;;;;3.13;2.17;;;;;;;;;;5093610;28;20028;-63
2023/04/13 07:25:33;;;;;;;2.42;2.03;;;;;;;;;;5068516;28;20483;-64
2023/04/13 07:27:58;;;;;;;3.42;2.15;;;;;;;;;;5088120;28;20032;-64
2023/04/13 07:30:24;;;;;;;2.70;2.20;;;;;;;;;;5085602;28;20021;-63
2023/04/13 07:32:50;;;;;;;2.53;2.13;;;;;;;;;;5086854;28;20518;-63
2023/04/13 07:35:16;;;;;;;3.00;2.40;;;;;;;;;;5086703;28;20028;-64
2023/04/13 07:37:42;;;;;;;2.30;2.10;;;;;;;;;;5087224;28;20020;-62
2023/04/13 07:40:08;;;;;;;1.95;1.80;;;;;;;;;;5087036;28;20361;-63
2023/04/13 07:42:34;;;;;;;2.80;2.17;;;;;;;;;;5084246;28;20055;-64
2023/04/13 07:45:00;;;;;;;2.65;2.03;;;;;;;;;;5083663;28;20038;-63
2023/04/13 07:47:26;;;;;;;2.50;2.20;;;;;;;;;;5089010;28;20023;-63
2023/04/13 07:49:52;;;;;;;2.00;1.80;;;;;;;;;;5085519;28;20486;-63
2023/04/13 07:52:19;;;;;;;2.75;2.15;;;;;;;;;;5088332;28;20036;-63
2023/04/13 07:54:44;;;;;;;2.10;1.90;;;;;;;;;;5084922;28;20039;-63
2023/04/13 07:57:10;;;;;;;2.95;2.05;;;;;;;;;;5078185;28;20545;-62
2023/04/13 07:59:35;;;;;;;2.90;1.92;;;;;;;;;;5072744;28;20020;-63
2023/04/13 08:02:01;;;;;;;2.63;2.00;;;;;;;;;;5054557;28;20029;-61
2023/04/13 08:04:26;;;;;;;2.78;2.00;;;;;;;;;;5071083;28;20025;-63
2023/04/13 08:06:52;;;;;;;2.45;2.20;;;;;;;;;;5070786;28;20467;-63
2023/04/13 08:09:18;;;;;;;2.08;1.98;;;;;;;;;;5070892;28;20472;-62
2023/04/13 08:11:44;;;;;;;2.58;2.00;;;;;;;;;;5074086;28;20039;-62
2023/04/13 08:14:10;;;;;;;2.92;2.05;;;;;;;;;;5091269;28;20051;-62
2023/04/13 08:16:36;;;;;;;2.70;1.92;;;;;;;;;;5089462;28;20024;-62
2023/04/13 08:19:02;;;;;;;3.10;1.77;;;;;;;;;;5070715;28;20025;-61
2023/04/13 08:21:28;;;;;;;2.70;1.98;;;;;;;;;;5082431;28;20077;-62
2023/04/13 08:23:55;;;;;;;9.27;2.20;;;;;;;;;;5088305;28;20467;-62
2023/04/13 08:26:21;;;;;;;2.10;1.90;;;;;;;;;;5090842;28;20553;-62
2023/04/13 08:28:47;;;;;;;2.17;1.83;;;;;;;;;;5090864;28;20057;-62
2023/04/13 08:31:16;;;;;;;1.95;1.77;;;;;;;;;;5090460;28;20478;-63
2023/04/13 08:33:42;;;;;;;3.55;2.00;;;;;;;;;;5090680;28;20487;-63
2023/04/13 08:36:08;;;;;;;2.45;2.20;;;;;;;;;;5069995;28;20028;-62
2023/04/13 08:38:34;;;;;;;3.97;1.80;;;;;;;;;;5071064;28;20028;-65
2023/04/13 08:41:02;;;;;;;5.90;2.10;;;;;;;;;;5070561;28;20143;-62
2023/04/13 08:43:30;;;;;;;2.10;1.90;;;;;;;;;;5068143;28;20439;-62
2023/04/13 08:45:55;;;;;;;2.65;2.10;;;;;;;;;;5090108;28;20071;-62
2023/04/13 08:48:22;;;;;;;3.17;1.90;;;;;;;;;;5090249;28;20063;-62
2023/04/13 08:50:52;;;;;;;2.88;2.00;;;;;;;;;;5086717;28;20392;-62
2023/04/13 08:53:18;;;;;;;;;;;;;;;;;;5052455;28;20122;-62
2023/04/13 08:55:44;;;;;;;5.25;2.17;;;;;;;;;;5070715;28;19962;-62
2023/04/13 08:58:19;;;;;;;4.78;1.80;;;;;;;;;;5070188;28;20037;-61
2023/04/13 09:00:48;;;;;;;2.03;1.83;;;;;;;;;;5070040;28;20033;-62
2023/04/13 09:03:19;;;;;;;1.93;1.73;;;;;;;;;;5069225;28;20484;-63
2023/04/13 09:05:51;;;;;;;2.70;1.80;;;;;;;;;;5072511;28;20109;-63
2023/04/13 09:08:16;;;;;;;2.20;1.92;;;;;;;;;;5073882;28;20482;-63
2023/04/13 09:10:42;;;;;;;2.72;1.73;;;;;;;;;;5073898;28;20055;-63
2023/04/13 09:13:08;;;;;;;4.63;1.70;;;;;;;;;;5074082;28;20099;-63
2023/04/13 09:15:33;;;;;;;3.55;1.67;;;;;;;;;;5074036;28;20021;-62
2023/04/13 09:18:09;;;;;;;2.72;1.88;;;;;;;;;;5073845;28;20570;-62
2023/04/13 09:20:35;;;;;;;2.33;2.00;;;;;;;;;;5073669;28;20515;-62
2023/04/13 09:23:13;;;;;;;2.08;1.75;;;;;;;;;;5073548;28;20047;-62
2023/04/13 09:25:39;;;;;;;2.00;1.60;;;;;;;;;;5073933;28;20081;-62
2023/04/13 09:28:07;;;;;;;2.58;2.15;;;;;;;;;;5073599;28;20032;-63
2023/04/13 09:30:33;;;;;;;1.73;1.60;;;;;;;;;;5073933;28;20097;-63
2023/04/13 09:33:03;;;;;;;1.98;1.67;;;;;;;;;;5072847;28;20072;-63
2023/04/13 09:35:30;;;;;;;1.55;1.45;;;;;;;;;;5073720;28;20033;-63
2023/04/13 09:37:56;;;;;;;1.98;1.77;;;;;;;;;;5073719;28;20103;-63
2023/04/13 09:40:22;;;;;;;1.80;1.70;;;;;;;;;;5073534;28;20132;-63
2023/04/13 09:43:00;;;;;;;1.98;1.73;;;;;;;;;;5073398;28;20029;-63
2023/04/13 09:45:35;;;;;;;2.65;1.60;;;;;;;;;;5073386;28;20048;-63
2023/04/13 09:48:17;;;;;;;2.47;2.00;;;;;;;;;;5073534;28;20041;-63
2023/04/13 09:50:43;;;;;;;2.88;1.60;;;;;;;;;;5073358;28;20017;-62
2023/04/13 09:53:11;;;;;;;2.35;1.88;;;;;;;;;;5073142;28;20078;-63
2023/04/13 09:55:38;;;;;;;1.85;1.65;;;;;;;;;;5073153;28;20028;-64
2023/04/13 09:58:15;;;;;;;2.08;1.73;;;;;;;;;;5073119;28;20051;-64
2023/04/13 10:00:43;;;;;;;2.85;1.88;;;;;;;;;;5072957;28;20028;-63
2023/04/13 10:03:11;;;;;;;1.77;1.60;;;;;;;;;;5073220;28;20055;-63
2023/04/13 10:05:37;;;;;;;2.03;1.70;;;;;;;;;;5073188;28;20020;-63
2023/04/13 10:08:04;;;;;;;2.95;1.90;;;;;;;;;;5073300;28;20432;-63
2023/04/13 10:10:30;;;;;;;2.75;1.85;;;;;;;;;;5072824;28;20187;-64
2023/04/13 10:12:59;;;;;;;5.07;1.80;;;;;;;;;;5072848;28;20028;-63
2023/04/13 10:15:58;;;;;;;1.85;1.52;;;;;;;;;;5072435;28;20048;-63
2023/04/13 10:18:44;;;;;;;1.83;1.73;;;;;;;;;;5072822;28;20488;-63
2023/04/13 10:21:12;;;;;;;1.70;1.50;;;;;;;;;;5072717;28;20431;-63
2023/04/13 10:23:37;;;;;;;2.45;1.75;;;;;;;;;;5073202;28;20059;-63
2023/04/13 10:26:05;;;;;;;2.05;1.75;;;;;;;;;;5072789;28;20437;-63
2023/04/13 10:28:47;;;;;;;3.58;1.83;;;;;;;;;;5054677;28;20051;-64
2023/04/13 10:31:13;;;;;;;1.85;1.60;;;;;;;;;;5086530;28;20468;-63
2023/04/13 10:33:51;;;;;;;1.90;1.70;;;;;;;;;;5090557;28;20582;-63
2023/04/13 10:36:17;;;;;;;2.03;1.85;;;;;;;;;;5072418;28;20067;-63
2023/04/13 10:38:43;;;;;;;2.28;1.60;;;;;;;;;;5072312;28;20125;-63
2023/04/13 10:41:09;;;;;;;3.35;1.90;;;;;;;;;;5072630;28;20067;-63
2023/04/13 10:43:35;;;;;;;1.70;1.48;;;;;;;;;;5072457;28;20078;-64
2023/04/13 10:46:19;;;;;;;2.53;1.67;;;;;;;;;;5055897;28;20565;-64
2023/04/13 10:48:53;;;;;;;2.03;1.70;;;;;;;;;;5087939;28;20020;-64
2023/04/13 10:51:21;;;;;;;2.30;1.95;;;;;;;;;;5091426;28;20456;-64
2023/04/13 10:53:47;;;;;;;1.70;1.60;;;;;;;;;;5089078;28;20036;-64
2023/04/13 10:56:19;;;;;;;2.28;1.70;;;;;;;;;;5088305;28;20507;-64
2023/04/13 10:58:51;;;;;;;1.70;1.60;;;;;;;;;;5087618;28;20480;-64
2023/04/13 11:01:17;;;;;;;2.53;1.85;;;;;;;;;;5090599;28;20075;-64
2023/04/13 11:03:43;;;;;;;1.70;1.60;;;;;;;;;;5091023;28;20446;-64
2023/04/13 11:06:09;;;;;;;3.30;1.70;;;;;;;;;;5089601;28;20475;-67
2023/04/13 11:08:38;;;;;;;3.25;1.70;;;;;;;;;;5086273;28;20024;-65
2023/04/13 11:11:04;;;;;;;1.90;1.70;;;;;;;;;;5090889;28;20027;-65
2023/04/13 11:13:30;;;;;;;2.80;2.00;;;;;;;;;;5090658;28;20024;-65
2023/04/13 11:16:01;;;;;;;1.80;1.70;;;;;;;;;;5086327;28;20027;-66
2023/04/13 11:18:27;;;;;;;2.50;1.70;;;;;;;;;;5091703;28;20065;-64
2023/04/13 11:20:53;;;;;;;2.00;1.80;;;;;;;;;;5091703;28;20070;-63
2023/04/13 11:23:22;;;;;;;4.47;1.85;;;;;;;;;;5091933;28;20339;-63
2023/04/13 11:26:00;;;;;;;1.88;1.55;;;;;;;;;;5086381;28;20062;-64
2023/04/13 11:28:37;;;;;;;2.08;1.80;;;;;;;;;;5089499;28;20048;-65
2023/04/13 11:31:03;;;;;;;4.40;1.63;;;;;;;;;;5090426;28;20075;-64
2023/04/13 11:33:30;;;;;;;2.47;1.90;;;;;;;;;;5091028;28;20051;-63
2023/04/13 11:35:57;;;;;;;2.28;1.70;;;;;;;;;;5091402;28;20039;-63
2023/04/13 11:38:23;;;;;;;1.95;1.75;;;;;;;;;;5089541;28;20035;-65
2023/04/13 11:40:58;;;;;;;2.28;1.88;;;;;;;;;;5090271;28;20107;-63
2023/04/13 11:43:24;;;;;;;3.60;1.70;;;;;;;;;;5086563;28;20049;-64
2023/04/13 11:45:51;;;;;;;4.15;1.80;;;;;;;;;;5089291;28;20111;-64
2023/04/13 11:48:17;;;;;;;2.90;1.70;;;;;;;;;;5089301;28;20016;-65
2023/04/13 11:50:43;;;;;;;4.85;1.67;;;;;;;;;;5089826;28;20070;-65
2023/04/13 11:53:09;;;;;;;2.85;1.95;;;;;;;;;;5076469;28;20058;-66
2023/04/13 11:55:37;;;;;;;4.50;2.08;;;;;;;;;;5080979;28;20424;-64
2023/04/13 11:58:08;;;;;;;2.22;1.80;;;;;;;;;;5091084;28;20031;-64
2023/04/13 12:00:38;;;;;;;2.53;1.50;;;;;;;;;;5082099;28;20017;-65
2023/04/13 12:03:04;;;;;;;2.38;1.80;;;;;;;;;;5070780;28;20028;-64
2023/04/13 12:05:31;;;;;;;2.75;1.80;;;;;;;;;;5071015;28;20108;-64
2023/04/13 12:07:57;;;;;;;2.40;1.70;;;;;;;;;;5071102;28;20091;-64
2023/04/13 12:10:28;;;;;;;2.13;1.58;;;;;;;;;;5070780;28;20056;-66
2023/04/13 12:13:09;;;;;;;4.68;1.90;;;;;;;;;;5071070;28;20035;-65
2023/04/13 12:15:39;;;;;;;2.00;1.70;;;;;;;;;;5081050;28;20051;-64
2023/04/13 12:18:05;;;;;;;3.72;1.73;;;;;;;;;;5086428;28;20032;-65
2023/04/13 12:20:39;;;;;;;1.83;1.70;;;;;;;;;;5084785;28;20032;-64
2023/04/13 12:23:16;;;;;;;3.33;1.73;;;;;;;;;;5090889;28;20089;-64
2023/04/13 12:26:04;;;;;;;2.22;1.80;;;;;;;;;;5086168;28;20032;-64
2023/04/13 12:28:37;;;;;;;2.15;1.83;;;;;;;;;;5086656;28;20404;-64
2023/04/13 12:31:08;;;;;;;2.95;1.80;;;;;;;;;;5089061;28;20035;-64
2023/04/13 12:33:35;;;;;;;2.10;1.90;;;;;;;;;;5086800;28;20518;-66
2023/04/13 12:36:01;;;;;;;4.10;1.88;;;;;;;;;;5086141;28;20057;-65
2023/04/13 12:38:27;;;;;;;5.00;1.88;;;;;;;;;;5089511;28;20031;-64
2023/04/13 12:41:00;;;;;;;2.95;1.80;;;;;;;;;;5092052;28;20032;-65
2023/04/13 12:43:27;;;;;;;3.20;1.92;;;;;;;;;;5092411;28;20082;-62
2023/04/13 12:45:53;;;;;;;7.07;1.70;;;;;;;;;;5092101;28;20475;-62
2023/04/13 12:48:20;;;;;;;4.38;1.88;;;;;;;;;;5094711;28;20043;-64
2023/04/13 12:50:45;;;;;;;4.07;2.00;;;;;;;;;;5093433;28;20402;-63
2023/04/13 12:53:11;;;;;;;3.63;1.92;;;;;;;;;;5094642;28;20039;-63
2023/04/13 12:55:37;;;;;;;4.10;2.17;;;;;;;;;;5094929;28;20055;-63
2023/04/13 12:58:03;;;;;;;2.95;1.73;;;;;;;;;;5094630;28;20043;-63
2023/04/13 13:00:28;;;;;;;1.88;1.70;;;;;;;;;;5094507;28;20028;-63
2023/04/13 13:02:54;;;;;;;1.70;1.58;;;;;;;;;;5094499;28;20032;-63
2023/04/13 13:05:20;;;;;;;3.33;1.92;;;;;;;;;;5083580;28;20058;-63
2023/04/13 13:07:45;;;;;;;2.42;1.70;;;;;;;;;;5074452;28;20059;-63
2023/04/13 13:10:11;;;;;;;2.17;1.77;;;;;;;;;;5074059;28;20539;-64
2023/04/13 13:12:36;;;;;;;2.10;1.90;;;;;;;;;;5087836;28;20016;-63
2023/04/13 13:15:04;;;;;;;3.72;1.85;;;;;;;;;;5093494;28;20142;-63
2023/04/13 13:17:30;;;;;;;2.13;1.80;;;;;;;;;;5094377;28;20036;-63
2023/04/13 13:19:56;;;;;;;2.35;1.80;;;;;;;;;;5075928;28;20080;-64
2023/04/13 13:22:22;;;;;;;2.03;1.67;;;;;;;;;;5094028;28;20063;-65
2023/04/13 13:24:47;;;;;;;2.13;1.88;;;;;;;;;;5092614;28;20075;-65
2023/04/13 13:27:13;;;;;;;2.13;1.83;;;;;;;;;;5085853;28;20560;-65
2023/04/13 13:29:39;;;;;;;2.15;1.90;;;;;;;;;;5091328;28;20381;-65
2023/04/13 13:32:05;;;;;;;3.90;1.98;;;;;;;;;;5093790;28;20128;-64
2023/04/13 13:34:31;;;;;;;2.67;1.80;;;;;;;;;;5075269;28;20051;-64
2023/04/13 13:36:57;;;;;;;4.32;2.33;;;;;;;;;;5073514;28;20488;-65
2023/04/13 13:39:24;;;;;;;2.53;1.88;;;;;;;;;;5073471;28;20536;-65
2023/04/13 13:41:50;;;;;;;2.47;2.13;;;;;;;;;;5073482;28;20036;-64
2023/04/13 13:44:16;;;;;;;2.22;1.70;;;;;;;;;;5078180;28;20028;-64
2023/04/13 13:46:41;;;;;;;2.13;1.80;;;;;;;;;;5092212;28;20024;-64
2023/04/13 13:49:07;;;;;;;2.72;2.00;;;;;;;;;;5093618;28;20488;-65
2023/04/13 13:51:33;;;;;;;3.22;2.15;;;;;;;;;;5092917;28;20031;-64
2023/04/13 13:53:58;;;;;;;2.05;1.90;;;;;;;;;;5093640;28;20030;-64
2023/04/13 13:56:32;;;;;;;3.25;1.90;;;;;;;;;;5093537;28;20061;-64
2023/04/13 13:58:57;;;;;;;1.75;1.63;;;;;;;;;;5093643;28;20115;-64
2023/04/13 14:01:23;;;;;;;4.82;2.17;;;;;;;;;;5091846;28;21012;-64
2023/04/13 14:03:48;;;;;;;2.13;1.77;;;;;;;;;;5089355;28;20043;-64
2023/04/13 14:06:14;;;;;;;2.85;2.05;;;;;;;;;;5090985;28;20020;-64
2023/04/13 14:08:40;;;;;;;4.75;2.10;;;;;;;;;;5089553;28;20088;-63
2023/04/13 14:11:05;;;;;;;2.25;1.85;;;;;;;;;;5089821;28;20108;-64
2023/04/13 14:13:31;;;;;;;2.78;2.00;;;;;;;;;;5090368;28;20078;-64
2023/04/13 14:15:56;;;;;;;2.22;1.80;;;;;;;;;;5090817;28;20024;-64
2023/04/13 14:18:25;;;;;;;2.28;1.95;;;;;;;;;;5089417;28;20563;-65
2023/04/13 14:20:51;;;;;;;1.98;1.77;;;;;;;;;;5090861;28;20077;-64
2023/04/13 14:23:17;;;;;;;2.83;1.83;;;;;;;;;;5091772;28;20031;-64
2023/04/13 14:25:42;;;;;;;2.80;1.83;;;;;;;;;;5088713;28;20404;-64
2023/04/13 14:28:09;;;;;;;3.33;1.90;;;;;;;;;;5090754;28;20024;-64
2023/04/13 14:30:35;;;;;;;2.60;1.77;;;;;;;;;;5089982;28;20027;-64
2023/04/13 14:33:02;;;;;;;1.65;1.55;;;;;;;;;;5088879;28;20052;-64
2023/04/13 14:35:28;;;;;;;2.17;1.77;;;;;;;;;;5090526;28;20099;-64
2023/04/13 14:37:54;;;;;;;3.30;1.77;;;;;;;;;;5088346;28;20134;-64
2023/04/13 14:40:21;;;;;;;2.05;1.77;;;;;;;;;;5090206;28;20235;-64
2023/04/13 14:42:48;;;;;;;2.63;1.80;;;;;;;;;;5090348;28;20036;-63
2023/04/13 14:45:14;;;;;;;2.22;2.00;;;;;;;;;;5090873;28;20047;-64